createdAt,value
2022-10-12T00:01:50.049Z,25.88
2022-10-12T00:04:53.301Z,24.52
2022-10-12T00:07:57.915Z,25.67
2022-10-12T00:11:01.299Z,26.98
2022-10-12T00:14:04.731Z,24.00
2022-10-12T00:17:07.899Z,22.27
2022-10-12T00:20:12.039Z,17.08
2022-10-12T00:23:16.610Z,20.15
2022-10-12T00:26:21.646Z,24.88
2022-10-12T00:29:25.493Z,23.67
2022-10-12T00:32:28.698Z,27.40
2022-10-12T00:35:31.874Z,26.33
2022-10-12T00:38:36.375Z,27.67
2022-10-12T00:41:41.963Z,31.90
2022-10-12T00:44:46.677Z,34.75
2022-10-12T00:47:52.906Z,22.85
2022-10-12T00:50:57.072Z,33.15
2022-10-12T00:54:07.078Z,26.73
2022-10-12T00:57:12.638Z,31.45
2022-10-12T01:00:16.882Z,31.63
2022-10-12T01:03:23.537Z,30.33
2022-10-12T01:06:26.789Z,29.52
2022-10-12T01:09:31.920Z,27.80
2022-10-12T01:12:35.958Z,28.63
2022-10-12T01:15:46.564Z,34.03
2022-10-12T01:18:57.099Z,31.60
2022-10-12T01:22:04.366Z,31.85
2022-10-12T01:25:19.598Z,39.00
2022-10-12T01:28:37.226Z,34.88
2022-10-12T01:31:48.253Z,28.90
2022-10-12T01:34:58.573Z,37.55
2022-10-12T01:38:12.125Z,37.38
2022-10-12T01:41:21.152Z,35.90
2022-10-12T01:44:26.589Z,40.08
2022-10-12T01:47:32.721Z,27.38
2022-10-12T01:50:44.542Z,37.95
2022-10-12T01:53:56.532Z,35.20
2022-10-12T01:57:07.362Z,42.88
2022-10-12T02:00:13.089Z,43.33
2022-10-12T02:03:24.442Z,38.03
2022-10-12T02:06:33.437Z,38.25
2022-10-12T02:09:38.117Z,38.88
2022-10-12T02:12:43.422Z,42.55
2022-10-12T02:15:48.921Z,39.42
2022-10-12T02:18:56.967Z,44.17
2022-10-12T02:22:03.122Z,43.05
2022-10-12T02:25:11.057Z,47.00
2022-10-12T02:28:18.714Z,41.33
2022-10-12T02:31:29.130Z,36.95
2022-10-12T02:34:37.301Z,37.20
2022-10-12T02:37:44.571Z,37.28
2022-10-12T02:40:52.426Z,41.58
2022-10-12T02:44:00.791Z,42.90
2022-10-12T02:47:05.417Z,42.35
2022-10-12T02:50:11.397Z,37.30
2022-10-12T02:53:15.828Z,36.83
2022-10-12T02:56:18.891Z,44.03
2022-10-12T02:59:22.096Z,52.22
2022-10-12T03:02:25.299Z,52.55
2022-10-12T03:05:29.793Z,50.88
2022-10-12T03:08:32.901Z,51.72
2022-10-12T03:11:37.660Z,43.50
2022-10-12T03:14:40.799Z,42.47
2022-10-12T03:17:43.941Z,46.70
2022-10-12T03:20:50.333Z,65.47
2022-10-12T03:23:53.480Z,55.08
2022-10-12T03:26:56.994Z,49.92
2022-10-12T03:30:00.163Z,50.67
2022-10-12T03:34:33.292Z,41.75
2022-10-12T03:37:36.801Z,43.92
2022-10-12T03:40:40.455Z,41.45
2022-10-12T03:43:43.815Z,44.13
2022-10-12T03:46:47.052Z,39.22
2022-10-12T03:49:51.700Z,37.95
2022-10-12T03:52:54.954Z,45.35
2022-10-12T03:55:58.189Z,39.40
2022-10-12T03:59:01.528Z,39.38
2022-10-12T04:02:04.695Z,37.75
2022-10-12T04:05:10.274Z,33.28
2022-10-12T04:08:13.672Z,45.80
2022-10-12T04:11:17.385Z,35.90
2022-10-12T04:14:20.505Z,36.22
2022-10-12T04:17:23.965Z,41.85
2022-10-12T04:20:28.587Z,37.85
2022-10-12T04:23:31.754Z,37.80
2022-10-12T04:26:34.924Z,37.08
2022-10-12T04:29:38.237Z,41.63
2022-10-12T04:32:41.584Z,34.92
2022-10-12T04:35:46.092Z,35.35
2022-10-12T04:38:49.218Z,37.70
2022-10-12T04:41:52.322Z,40.35
2022-10-12T04:44:55.510Z,39.30
2022-10-12T04:47:58.670Z,39.55
2022-10-12T04:51:03.191Z,39.70
2022-10-12T04:54:06.577Z,44.40
2022-10-12T04:57:10.005Z,40.92
2022-10-12T05:00:13.934Z,34.58
2022-10-12T05:03:17.567Z,36.38
2022-10-12T05:06:22.124Z,30.35
2022-10-12T05:09:25.453Z,34.83
2022-10-12T05:12:28.752Z,35.72
2022-10-12T05:15:32.141Z,30.35
2022-10-12T05:18:35.272Z,31.95
2022-10-12T05:21:40.473Z,28.52
2022-10-12T05:24:43.656Z,36.30
2022-10-12T05:27:46.843Z,32.58
2022-10-12T05:30:51.309Z,31.42
2022-10-12T05:33:54.433Z,30.80
2022-10-12T05:36:59.270Z,36.53
2022-10-12T05:40:02.529Z,33.88
2022-10-12T05:43:06.192Z,36.33
2022-10-12T05:46:14.248Z,36.72
2022-10-12T05:49:17.824Z,30.55
2022-10-12T05:52:22.476Z,33.13
2022-10-12T05:55:25.693Z,28.50
2022-10-12T05:58:30.842Z,34.65
2022-10-12T06:01:34.220Z,22.70
2022-10-12T06:04:37.535Z,26.88
2022-10-12T06:07:42.575Z,28.73
2022-10-12T06:10:51.362Z,33.05
2022-10-12T06:13:54.898Z,26.08
2022-10-12T06:16:58.075Z,32.90
2022-10-12T06:20:01.268Z,34.13
2022-10-12T06:23:06.168Z,36.85
2022-10-12T06:26:09.282Z,32.90
2022-10-12T06:29:12.815Z,32.95
2022-10-12T06:32:16.000Z,29.98
2022-10-12T06:35:21.755Z,32.75
2022-10-12T06:38:26.314Z,36.08
2022-10-12T06:41:29.397Z,32.30
2022-10-12T06:44:32.846Z,31.25
2022-10-12T06:47:35.998Z,30.33
2022-10-12T06:50:39.519Z,36.80
2022-10-12T06:53:44.330Z,30.10
2022-10-12T06:56:47.647Z,33.72
2022-10-12T06:59:50.798Z,40.63
2022-10-12T07:02:53.977Z,37.30
2022-10-12T07:05:57.131Z,33.22
2022-10-12T07:09:02.209Z,31.42
2022-10-12T07:12:05.963Z,27.27
2022-10-12T07:15:10.284Z,29.30
2022-10-12T07:18:13.403Z,30.40
2022-10-12T07:21:16.600Z,23.85
2022-10-12T07:24:21.155Z,28.40
2022-10-12T07:27:24.620Z,26.23
2022-10-12T07:30:27.980Z,27.63
2022-10-12T07:33:35.210Z,33.00
2022-10-12T07:36:57.928Z,32.63
2022-10-12T07:40:04.115Z,25.95
2022-10-12T07:43:15.723Z,26.65
2022-10-12T07:46:19.561Z,27.30
2022-10-12T07:49:22.986Z,26.20
2022-10-12T07:52:27.503Z,27.83
2022-10-12T07:55:32.970Z,27.98
2022-10-12T07:58:36.348Z,29.05
2022-10-12T08:01:39.520Z,30.55
2022-10-12T08:04:43.206Z,26.85
2022-10-12T08:07:46.361Z,31.38
2022-10-12T08:10:51.046Z,28.30
2022-10-12T08:13:55.079Z,25.23
2022-10-12T08:16:58.198Z,22.27
2022-10-12T08:20:01.350Z,28.40
2022-10-12T08:23:04.613Z,27.13
2022-10-12T08:26:09.355Z,23.75
2022-10-12T08:29:12.652Z,26.92
2022-10-12T08:32:15.842Z,31.35
2022-10-12T08:35:19.007Z,22.77
2022-10-12T08:38:22.158Z,33.55
2022-10-12T08:41:46.984Z,29.73
2022-10-12T08:45:27.479Z,28.23
2022-10-12T08:48:37.023Z,29.85
2022-10-12T08:51:48.110Z,31.98
2022-10-12T08:54:51.528Z,28.95
2022-10-12T08:57:56.111Z,27.75
2022-10-12T09:01:11.680Z,21.48
2022-10-12T09:04:34.440Z,28.75
2022-10-12T09:07:41.625Z,28.30
2022-10-12T09:10:47.649Z,30.87
2022-10-12T09:14:00.645Z,29.55
2022-10-12T09:17:09.613Z,27.67
2022-10-12T09:20:20.297Z,23.50
2022-10-12T09:23:26.234Z,29.05
2022-10-12T09:26:35.715Z,25.10
2022-10-12T09:29:40.500Z,26.50
2022-10-12T09:34:33.213Z,35.10
2022-10-12T09:37:37.191Z,33.35
2022-10-12T09:40:41.221Z,24.63
2022-10-12T09:43:44.625Z,24.30
2022-10-12T09:46:55.316Z,33.40
2022-10-12T09:50:02.117Z,30.10
2022-10-12T09:53:14.513Z,24.55
2022-10-12T09:56:25.352Z,22.38
2022-10-12T09:59:31.279Z,26.98
2022-10-12T10:02:47.743Z,26.00
2022-10-12T10:06:03.744Z,24.25
2022-10-12T10:09:07.629Z,25.73
2022-10-12T10:12:22.685Z,31.05
2022-10-12T10:15:28.612Z,24.67
2022-10-12T10:18:35.976Z,26.77
2022-10-12T10:21:41.508Z,27.10
2022-10-12T10:24:50.471Z,25.27
2022-10-12T10:28:22.574Z,26.10
2022-10-12T10:31:29.383Z,25.25
2022-10-12T10:34:32.584Z,23.05
2022-10-12T10:37:37.045Z,21.20
2022-10-12T10:40:40.290Z,28.08
2022-10-12T10:43:48.177Z,28.25
2022-10-12T10:49:59.167Z,21.10
2022-10-12T10:53:06.374Z,23.13
2022-10-12T10:56:13.041Z,25.48
2022-10-12T10:59:20.982Z,27.55
2022-10-12T11:02:35.196Z,21.98
2022-10-12T11:05:44.176Z,25.55
2022-10-12T11:08:53.991Z,25.80
2022-10-12T11:12:03.004Z,24.77
2022-10-12T11:15:16.441Z,27.73
2022-10-12T11:18:25.971Z,24.80
2022-10-12T11:21:36.482Z,38.45
2022-10-12T11:24:46.270Z,31.92
2022-10-12T11:27:53.780Z,30.52
2022-10-12T11:30:57.239Z,24.58
2022-10-12T11:34:08.942Z,27.45
2022-10-12T11:37:21.006Z,31.80
2022-10-12T11:40:48.634Z,38.83
2022-10-12T11:43:57.273Z,23.67
2022-10-12T11:47:04.005Z,26.27
2022-10-12T11:50:16.311Z,23.65
2022-10-12T11:53:26.467Z,28.58
2022-10-12T11:56:35.679Z,31.35
2022-10-12T11:59:43.580Z,33.42
2022-10-12T12:05:53.478Z,29.77
2022-10-12T12:09:18.741Z,31.75
2022-10-12T12:12:25.625Z,26.85
2022-10-12T12:15:29.085Z,28.00
2022-10-12T12:18:34.031Z,26.92
2022-10-12T12:22:10.397Z,27.73
2022-10-12T12:25:34.672Z,22.27
2022-10-12T12:28:40.862Z,23.75
2022-10-12T12:31:44.060Z,23.55
2022-10-12T12:35:00.490Z,21.30
2022-10-12T12:38:18.233Z,26.65
2022-10-12T12:41:23.054Z,25.17
2022-10-12T12:44:41.547Z,23.98
2022-10-12T12:47:46.166Z,19.70
2022-10-12T12:50:51.502Z,23.08
2022-10-12T12:54:01.186Z,23.20
2022-10-12T12:57:25.689Z,22.73
2022-10-12T13:00:38.228Z,26.63
2022-10-12T13:04:01.519Z,19.25
2022-10-12T13:07:34.467Z,15.45
2022-10-12T13:10:55.641Z,20.35
2022-10-12T13:14:08.022Z,26.05
2022-10-12T13:17:34.258Z,22.20
2022-10-12T13:20:40.185Z,22.85
2022-10-12T13:23:46.951Z,24.23
2022-10-12T13:26:52.511Z,26.63
2022-10-12T13:29:59.362Z,23.48
2022-10-12T13:33:14.211Z,23.60
2022-10-12T13:36:22.579Z,21.17
2022-10-12T13:39:26.761Z,25.83
2022-10-12T13:42:33.449Z,26.40
2022-10-12T13:45:45.422Z,24.40
2022-10-12T13:49:05.940Z,25.60
2022-10-12T13:52:21.718Z,18.77
2022-10-12T13:55:29.160Z,20.23
2022-10-12T13:58:33.844Z,31.00
2022-10-12T14:01:49.254Z,22.10
2022-10-12T14:04:57.156Z,25.73
2022-10-12T14:08:06.602Z,21.98
2022-10-12T14:11:10.703Z,18.20
2022-10-12T14:14:21.497Z,24.50
2022-10-12T14:17:24.952Z,18.77
2022-10-12T14:20:32.370Z,23.98
2022-10-12T14:23:35.556Z,18.90
2022-10-12T14:26:41.555Z,19.98
2022-10-12T14:29:46.716Z,25.15
2022-10-12T14:32:53.965Z,30.30
2022-10-12T14:36:16.179Z,19.42
2022-10-12T14:39:20.877Z,27.63
2022-10-12T14:42:29.410Z,24.70
2022-10-12T14:45:33.323Z,25.58
2022-10-12T14:48:37.250Z,29.25
2022-10-12T14:51:41.935Z,29.05
2022-10-12T14:54:45.341Z,27.05
2022-10-12T14:57:49.752Z,30.13
2022-10-12T15:00:52.952Z,22.55
2022-10-12T15:03:56.183Z,26.33
2022-10-12T15:07:00.824Z,27.55
2022-10-12T15:10:04.514Z,28.45
2022-10-12T15:13:07.965Z,29.85
2022-10-12T15:16:19.545Z,31.60
2022-10-12T15:19:22.629Z,36.88
2022-10-12T15:22:29.143Z,32.05
2022-10-12T15:25:42.689Z,31.35
2022-10-12T15:28:46.209Z,34.75
2022-10-12T15:34:33.242Z,37.45
2022-10-12T15:37:36.389Z,40.25
2022-10-12T15:40:40.521Z,36.67
2022-10-12T15:43:43.921Z,36.90
2022-10-12T15:46:52.059Z,36.42
2022-10-12T15:49:56.552Z,37.67
2022-10-12T15:52:59.694Z,39.13
2022-10-12T15:56:02.817Z,35.22
2022-10-12T15:59:06.492Z,38.38
2022-10-12T16:02:11.973Z,37.22
2022-10-12T16:05:21.022Z,37.78
2022-10-12T16:08:24.589Z,37.83
2022-10-12T16:11:27.770Z,40.10
2022-10-12T16:14:31.416Z,39.08
2022-10-12T16:17:34.543Z,43.47
2022-10-12T16:20:41.351Z,45.35
2022-10-12T16:23:44.488Z,49.38
2022-10-12T16:26:49.972Z,46.92
2022-10-12T16:29:53.718Z,49.55
2022-10-12T16:32:56.919Z,46.17
2022-10-12T16:36:01.383Z,49.35
2022-10-12T16:39:04.576Z,50.60
2022-10-12T16:42:07.680Z,51.50
2022-10-12T16:45:11.703Z,48.40
2022-10-12T16:48:14.793Z,54.83
2022-10-12T16:51:19.301Z,54.38
2022-10-12T16:54:23.247Z,47.60
2022-10-12T16:57:26.319Z,49.00
2022-10-12T17:00:29.633Z,53.08
2022-10-12T17:03:32.996Z,52.80
2022-10-12T17:06:37.530Z,55.78
2022-10-12T17:09:40.716Z,61.58
2022-10-12T17:12:44.137Z,55.28
2022-10-12T17:15:47.536Z,53.28
2022-10-12T17:18:53.542Z,59.03
2022-10-12T17:22:04.395Z,55.80
2022-10-12T17:25:08.736Z,55.10
2022-10-12T17:28:12.223Z,57.08
2022-10-12T17:31:15.437Z,62.97
2022-10-12T17:34:22.018Z,52.05
2022-10-12T17:37:26.873Z,52.15
2022-10-12T17:40:30.016Z,46.90
2022-10-12T17:43:33.464Z,51.30
2022-10-12T17:46:36.565Z,50.45
2022-10-12T17:49:39.775Z,50.67
2022-10-12T17:52:45.673Z,51.17
2022-10-12T17:55:49.258Z,50.65
2022-10-12T17:58:57.182Z,53.65
2022-10-12T18:02:00.845Z,51.42
2022-10-12T18:05:04.203Z,52.55
2022-10-12T18:08:08.771Z,54.13
2022-10-12T18:11:12.872Z,57.33
2022-10-12T18:14:16.018Z,56.55
2022-10-12T18:17:19.158Z,52.50
2022-10-12T18:20:22.395Z,55.83
2022-10-12T18:23:26.931Z,57.22
2022-10-12T18:26:30.588Z,51.72
2022-10-12T18:29:34.015Z,50.40
2022-10-12T18:32:37.702Z,65.85
2022-10-12T18:35:41.354Z,64.40
2022-10-12T18:38:46.050Z,65.90
2022-10-12T18:41:51.481Z,62.60
2022-10-12T18:44:55.076Z,65.95
2022-10-12T18:47:58.323Z,69.18
2022-10-12T18:51:05.319Z,77.28
2022-10-12T18:54:12.740Z,71.95
2022-10-12T18:57:15.875Z,63.10
2022-10-12T19:00:19.677Z,71.47
2022-10-12T19:03:23.246Z,72.55
2022-10-12T19:06:29.099Z,71.75
2022-10-12T19:09:33.658Z,73.85
2022-10-12T19:12:36.805Z,64.47
2022-10-12T19:15:40.022Z,68.07
2022-10-12T19:18:43.656Z,65.57
2022-10-12T19:21:46.903Z,63.95
2022-10-12T19:24:51.602Z,62.80
2022-10-12T19:27:54.935Z,71.03
2022-10-12T19:30:58.712Z,69.10
2022-10-12T19:34:04.247Z,64.53
2022-10-12T19:37:07.540Z,70.28
2022-10-12T19:40:14.667Z,60.90
2022-10-12T19:43:17.796Z,58.83
2022-10-12T19:46:21.427Z,58.85
2022-10-12T19:49:24.651Z,62.47
2022-10-12T19:52:28.061Z,75.30
2022-10-12T19:55:34.094Z,68.03
2022-10-12T19:58:37.853Z,67.22
2022-10-12T20:01:41.401Z,69.25
2022-10-12T20:04:44.608Z,59.35
2022-10-12T20:07:47.887Z,63.83
2022-10-12T20:10:52.834Z,64.05
2022-10-12T20:13:56.514Z,61.92
2022-10-12T20:17:00.528Z,62.90
2022-10-12T20:20:04.112Z,61.53
2022-10-12T20:23:07.327Z,53.95
2022-10-12T20:26:14.655Z,65.05
2022-10-12T20:29:17.973Z,64.65
2022-10-12T20:32:21.329Z,57.95
2022-10-12T20:35:24.720Z,60.58
2022-10-12T20:38:28.243Z,51.72
2022-10-12T20:41:32.789Z,56.75
2022-10-12T20:44:36.097Z,60.92
2022-10-12T20:47:39.343Z,57.13
2022-10-12T20:50:42.491Z,50.67
2022-10-12T20:53:46.077Z,49.38
2022-10-12T20:56:51.971Z,56.78
2022-10-12T20:59:55.242Z,49.83
2022-10-12T21:02:58.686Z,53.22
2022-10-12T21:06:06.084Z,49.20
2022-10-12T21:09:09.774Z,47.67
2022-10-12T21:12:14.244Z,53.25
2022-10-12T21:15:17.491Z,52.15
2022-10-12T21:18:27.125Z,57.38
2022-10-12T21:21:35.924Z,38.55
2022-10-12T21:24:39.171Z,50.70
2022-10-12T21:27:43.638Z,49.95
2022-10-12T21:34:32.840Z,53.15
2022-10-12T21:37:41.082Z,58.00
2022-10-12T21:40:50.376Z,52.85
2022-10-12T21:44:22.865Z,55.35
2022-10-12T21:47:30.463Z,53.80
2022-10-12T21:51:46.083Z,50.38
2022-10-12T21:54:54.812Z,51.10
2022-10-12T21:58:00.020Z,56.58
2022-10-12T22:01:08.717Z,57.33
2022-10-12T22:04:14.534Z,66.00
2022-10-12T22:07:17.865Z,63.83
2022-10-12T22:10:22.917Z,47.15
2022-10-12T22:13:27.965Z,45.92
2022-10-12T22:16:34.305Z,53.95
2022-10-12T22:19:38.724Z,59.42
2022-10-12T22:22:44.406Z,60.15
2022-10-12T22:25:50.693Z,54.97
2022-10-12T22:28:54.765Z,65.28
2022-10-12T22:31:58.983Z,49.80
2022-10-12T22:35:06.655Z,49.22
2022-10-12T22:38:10.477Z,49.23
2022-10-12T22:41:17.669Z,63.08
2022-10-12T22:44:24.589Z,62.03
2022-10-12T22:47:32.768Z,51.42
2022-10-12T22:50:38.112Z,58.75
2022-10-12T22:53:41.435Z,73.93
2022-10-12T22:56:46.788Z,58.03
2022-10-12T22:59:51.477Z,59.33
2022-10-12T23:03:00.572Z,64.40
2022-10-12T23:06:06.917Z,72.15
2022-10-12T23:09:14.418Z,60.60
2022-10-12T23:12:20.169Z,59.70
2022-10-12T23:15:24.761Z,69.15
2022-10-12T23:18:28.651Z,71.68
2022-10-12T23:21:33.961Z,60.97
2022-10-12T23:24:37.099Z,67.55
2022-10-12T23:27:41.653Z,58.63
2022-10-12T23:30:44.869Z,53.97
2022-10-12T23:33:48.566Z,65.95
2022-10-12T23:36:51.992Z,64.45
2022-10-12T23:39:55.637Z,68.68
2022-10-12T23:43:06.908Z,66.53
2022-10-12T23:46:17.156Z,69.47
2022-10-12T23:49:24.765Z,79.68
2022-10-12T23:52:30.580Z,73.28
2022-10-12T23:55:34.462Z,66.00
2022-10-12T23:58:40.579Z,59.38
